sensor_id;sensor_type;location;lat;lon;timestamp;P1;durP1;ratioP1;P2;durP2;ratioP2
47089;SDS011;32840;52.516;13.294;2023-07-02T00:00:57;2.42;;;1.23;;
47089;SDS011;32840;52.516;13.294;2023-07-02T00:03:42;3.25;;;1.50;;
47089;SDS011;32840;52.516;13.294;2023-07-02T00:06:27;3.45;;;1.60;;
47089;SDS011;32840;52.516;13.294;2023-07-02T00:09:12;1.85;;;1.30;;
47089;SDS011;32840;52.516;13.294;2023-07-02T00:11:57;1.80;;;1.40;;
47089;SDS011;32840;52.516;13.294;2023-07-02T00:14:43;3.45;;;1.55;;
47089;SDS011;32840;52.516;13.294;2023-07-02T00:17:28;2.08;;;1.58;;
47089;SDS011;32840;52.516;13.294;2023-07-02T00:20:14;3.08;;;1.60;;
47089;SDS011;32840;52.516;13.294;2023-07-02T00:23:02;1.80;;;1.35;;
47089;SDS011;32840;52.516;13.294;2023-07-02T00:25:47;2.10;;;1.50;;
47089;SDS011;32840;52.516;13.294;2023-07-02T00:28:32;2.67;;;1.60;;
47089;SDS011;32840;52.516;13.294;2023-07-02T00:31:17;3.30;;;1.65;;
47089;SDS011;32840;52.516;13.294;2023-07-02T00:34:02;2.85;;;2.08;;
47089;SDS011;32840;52.516;13.294;2023-07-02T00:36:48;3.47;;;2.13;;
47089;SDS011;32840;52.516;13.294;2023-07-02T00:39:33;2.80;;;1.73;;
47089;SDS011;32840;52.516;13.294;2023-07-02T00:42:19;3.42;;;2.30;;
47089;SDS011;32840;52.516;13.294;2023-07-02T00:45:06;3.85;;;2.53;;
47089;SDS011;32840;52.516;13.294;2023-07-02T00:47:53;3.80;;;2.00;;
47089;SDS011;32840;52.516;13.294;2023-07-02T00:50:39;4.95;;;2.50;;
47089;SDS011;32840;52.516;13.294;2023-07-02T00:53:26;2.92;;;2.30;;
47089;SDS011;32840;52.516;13.294;2023-07-02T00:56:11;3.05;;;2.25;;
47089;SDS011;32840;52.516;13.294;2023-07-02T00:58:56;3.63;;;2.70;;
47089;SDS011;32840;52.516;13.294;2023-07-02T01:01:43;3.55;;;2.60;;
47089;SDS011;32840;52.516;13.294;2023-07-02T01:04:34;5.68;;;2.40;;
47089;SDS011;32840;52.516;13.294;2023-07-02T01:07:19;2.85;;;2.53;;
47089;SDS011;32840;52.516;13.294;2023-07-02T01:10:06;4.50;;;2.83;;
47089;SDS011;32840;52.516;13.294;2023-07-02T01:12:51;7.45;;;3.70;;
47089;SDS011;32840;52.516;13.294;2023-07-02T01:15:36;3.35;;;2.88;;
47089;SDS011;32840;52.516;13.294;2023-07-02T01:18:22;4.68;;;2.83;;
47089;SDS011;32840;52.516;13.294;2023-07-02T01:21:07;5.40;;;2.95;;
47089;SDS011;32840;52.516;13.294;2023-07-02T01:23:52;3.90;;;3.10;;
47089;SDS011;32840;52.516;13.294;2023-07-02T01:26:37;4.35;;;3.53;;
47089;SDS011;32840;52.516;13.294;2023-07-02T01:29:22;4.40;;;3.65;;
47089;SDS011;32840;52.516;13.294;2023-07-02T01:32:07;3.95;;;3.20;;
47089;SDS011;32840;52.516;13.294;2023-07-02T01:34:55;6.20;;;3.67;;
47089;SDS011;32840;52.516;13.294;2023-07-02T01:37:40;5.00;;;4.13;;
47089;SDS011;32840;52.516;13.294;2023-07-02T01:40:25;4.90;;;3.45;;
47089;SDS011;32840;52.516;13.294;2023-07-02T01:43:10;4.47;;;3.70;;
47089;SDS011;32840;52.516;13.294;2023-07-02T01:45:56;5.38;;;3.90;;
47089;SDS011;32840;52.516;13.294;2023-07-02T01:48:42;4.70;;;4.03;;
47089;SDS011;32840;52.516;13.294;2023-07-02T01:51:27;5.30;;;4.30;;
47089;SDS011;32840;52.516;13.294;2023-07-02T01:54:12;8.00;;;5.65;;
47089;SDS011;32840;52.516;13.294;2023-07-02T01:56:58;6.95;;;4.80;;
47089;SDS011;32840;52.516;13.294;2023-07-02T01:59:43;7.35;;;4.68;;
47089;SDS011;32840;52.516;13.294;2023-07-02T02:02:29;7.13;;;4.70;;
47089;SDS011;32840;52.516;13.294;2023-07-02T02:05:15;6.85;;;5.15;;
47089;SDS011;32840;52.516;13.294;2023-07-02T02:08:00;6.07;;;5.18;;
47089;SDS011;32840;52.516;13.294;2023-07-02T02:10:45;7.28;;;5.05;;
47089;SDS011;32840;52.516;13.294;2023-07-02T02:13:30;8.23;;;5.40;;
47089;SDS011;32840;52.516;13.294;2023-07-02T02:16:17;4.70;;;3.97;;
47089;SDS011;32840;52.516;13.294;2023-07-02T02:19:02;6.97;;;5.03;;
47089;SDS011;32840;52.516;13.294;2023-07-02T02:21:48;6.55;;;4.05;;
47089;SDS011;32840;52.516;13.294;2023-07-02T02:24:33;7.68;;;5.22;;
47089;SDS011;32840;52.516;13.294;2023-07-02T02:27:18;6.20;;;4.57;;
47089;SDS011;32840;52.516;13.294;2023-07-02T02:30:03;6.07;;;4.40;;
47089;SDS011;32840;52.516;13.294;2023-07-02T02:32:48;7.15;;;4.57;;
47089;SDS011;32840;52.516;13.294;2023-07-02T02:35:34;4.93;;;3.97;;
47089;SDS011;32840;52.516;13.294;2023-07-02T02:38:19;8.40;;;4.40;;
47089;SDS011;32840;52.516;13.294;2023-07-02T02:41:04;5.72;;;3.92;;
47089;SDS011;32840;52.516;13.294;2023-07-02T02:43:50;8.10;;;4.75;;
47089;SDS011;32840;52.516;13.294;2023-07-02T02:46:35;5.78;;;3.92;;
47089;SDS011;32840;52.516;13.294;2023-07-02T02:49:20;4.72;;;4.22;;
47089;SDS011;32840;52.516;13.294;2023-07-02T02:52:05;5.88;;;4.00;;
47089;SDS011;32840;52.516;13.294;2023-07-02T02:54:50;7.05;;;4.60;;
47089;SDS011;32840;52.516;13.294;2023-07-02T02:57:37;6.82;;;4.60;;
47089;SDS011;32840;52.516;13.294;2023-07-02T03:00:22;5.63;;;4.05;;
47089;SDS011;32840;52.516;13.294;2023-07-02T03:03:06;5.00;;;4.00;;
47089;SDS011;32840;52.516;13.294;2023-07-02T03:05:51;6.55;;;3.88;;
47089;SDS011;32840;52.516;13.294;2023-07-02T03:08:36;7.43;;;4.20;;
47089;SDS011;32840;52.516;13.294;2023-07-02T03:11:21;6.47;;;4.05;;
47089;SDS011;32840;52.516;13.294;2023-07-02T03:14:11;8.00;;;5.05;;
47089;SDS011;32840;52.516;13.294;2023-07-02T03:16:56;5.63;;;4.65;;
47089;SDS011;32840;52.516;13.294;2023-07-02T03:19:40;4.78;;;3.78;;
47089;SDS011;32840;52.516;13.294;2023-07-02T03:22:25;6.75;;;3.92;;
47089;SDS011;32840;52.516;13.294;2023-07-02T03:25:12;5.82;;;3.30;;
47089;SDS011;32840;52.516;13.294;2023-07-02T03:27:58;6.00;;;4.30;;
47089;SDS011;32840;52.516;13.294;2023-07-02T03:30:43;4.57;;;3.50;;
47089;SDS011;32840;52.516;13.294;2023-07-02T03:33:28;6.38;;;3.75;;
47089;SDS011;32840;52.516;13.294;2023-07-02T03:36:13;5.00;;;3.58;;
47089;SDS011;32840;52.516;13.294;2023-07-02T03:38:58;4.95;;;3.20;;
47089;SDS011;32840;52.516;13.294;2023-07-02T03:41:44;5.15;;;3.83;;
47089;SDS011;32840;52.516;13.294;2023-07-02T03:44:28;6.47;;;3.17;;
47089;SDS011;32840;52.516;13.294;2023-07-02T03:47:13;6.28;;;2.95;;
47089;SDS011;32840;52.516;13.294;2023-07-02T03:49:59;5.80;;;3.47;;
47089;SDS011;32840;52.516;13.294;2023-07-02T03:52:45;5.05;;;3.00;;
47089;SDS011;32840;52.516;13.294;2023-07-02T03:55:30;7.57;;;3.97;;
47089;SDS011;32840;52.516;13.294;2023-07-02T03:58:15;5.30;;;3.30;;
47089;SDS011;32840;52.516;13.294;2023-07-02T04:01:09;4.80;;;3.10;;
47089;SDS011;32840;52.516;13.294;2023-07-02T04:03:56;6.15;;;3.17;;
47089;SDS011;32840;52.516;13.294;2023-07-02T04:06:41;4.63;;;3.33;;
47089;SDS011;32840;52.516;13.294;2023-07-02T04:09:26;5.88;;;3.35;;
47089;SDS011;32840;52.516;13.294;2023-07-02T04:12:11;6.85;;;3.45;;
47089;SDS011;32840;52.516;13.294;2023-07-02T04:14:56;6.20;;;3.10;;
47089;SDS011;32840;52.516;13.294;2023-07-02T04:17:40;4.40;;;3.08;;
47089;SDS011;32840;52.516;13.294;2023-07-02T04:20:25;4.35;;;2.90;;
47089;SDS011;32840;52.516;13.294;2023-07-02T04:23:13;4.60;;;3.10;;
47089;SDS011;32840;52.516;13.294;2023-07-02T04:25:58;6.70;;;3.00;;
47089;SDS011;32840;52.516;13.294;2023-07-02T04:28:46;6.47;;;3.10;;
47089;SDS011;32840;52.516;13.294;2023-07-02T04:31:31;6.60;;;3.10;;
47089;SDS011;32840;52.516;13.294;2023-07-02T04:34:16;7.93;;;3.45;;
47089;SDS011;32840;52.516;13.294;2023-07-02T04:37:01;5.50;;;2.85;;
47089;SDS011;32840;52.516;13.294;2023-07-02T04:39:46;7.13;;;3.20;;
47089;SDS011;32840;52.516;13.294;2023-07-02T04:42:31;5.50;;;3.30;;
47089;SDS011;32840;52.516;13.294;2023-07-02T04:48:10;4.80;;;2.72;;
47089;SDS011;32840;52.516;13.294;2023-07-02T04:50:58;6.45;;;2.90;;
47089;SDS011;32840;52.516;13.294;2023-07-02T04:53:43;6.20;;;2.80;;
47089;SDS011;32840;52.516;13.294;2023-07-02T04:56:27;6.53;;;3.20;;
47089;SDS011;32840;52.516;13.294;2023-07-02T04:59:16;4.25;;;2.80;;
47089;SDS011;32840;52.516;13.294;2023-07-02T05:02:01;6.18;;;2.90;;
47089;SDS011;32840;52.516;13.294;2023-07-02T05:04:46;4.13;;;2.50;;
47089;SDS011;32840;52.516;13.294;2023-07-02T05:07:31;4.88;;;2.80;;
47089;SDS011;32840;52.516;13.294;2023-07-02T05:10:16;3.38;;;2.65;;
47089;SDS011;32840;52.516;13.294;2023-07-02T05:13:01;6.53;;;3.40;;
47089;SDS011;32840;52.516;13.294;2023-07-02T05:15:47;4.93;;;2.58;;
47089;SDS011;32840;52.516;13.294;2023-07-02T05:18:33;3.92;;;2.70;;
47089;SDS011;32840;52.516;13.294;2023-07-02T05:21:18;4.43;;;2.60;;
47089;SDS011;32840;52.516;13.294;2023-07-02T05:24:03;6.07;;;2.72;;
47089;SDS011;32840;52.516;13.294;2023-07-02T05:26:48;7.53;;;2.92;;
47089;SDS011;32840;52.516;13.294;2023-07-02T05:29:34;4.82;;;2.65;;
47089;SDS011;32840;52.516;13.294;2023-07-02T05:32:21;5.55;;;2.60;;
47089;SDS011;32840;52.516;13.294;2023-07-02T05:35:07;5.80;;;2.35;;
47089;SDS011;32840;52.516;13.294;2023-07-02T05:37:52;4.10;;;2.45;;
47089;SDS011;32840;52.516;13.294;2023-07-02T05:40:37;5.07;;;3.00;;
47089;SDS011;32840;52.516;13.294;2023-07-02T05:43:22;5.60;;;3.10;;
47089;SDS011;32840;52.516;13.294;2023-07-02T05:46:07;4.43;;;2.42;;
47089;SDS011;32840;52.516;13.294;2023-07-02T05:48:53;6.53;;;2.97;;
47089;SDS011;32840;52.516;13.294;2023-07-02T05:51:41;5.32;;;2.78;;
47089;SDS011;32840;52.516;13.294;2023-07-02T05:54:27;6.05;;;2.45;;
47089;SDS011;32840;52.516;13.294;2023-07-02T05:57:12;10.32;;;2.88;;
47089;SDS011;32840;52.516;13.294;2023-07-02T05:59:57;6.20;;;2.95;;
47089;SDS011;32840;52.516;13.294;2023-07-02T06:02:42;6.60;;;2.80;;
47089;SDS011;32840;52.516;13.294;2023-07-02T06:05:27;7.20;;;2.60;;
47089;SDS011;32840;52.516;13.294;2023-07-02T06:08:12;3.17;;;2.40;;
47089;SDS011;32840;52.516;13.294;2023-07-02T06:10:58;6.15;;;2.90;;
47089;SDS011;32840;52.516;13.294;2023-07-02T06:13:44;5.05;;;2.47;;
47089;SDS011;32840;52.516;13.294;2023-07-02T06:16:29;4.90;;;2.60;;
47089;SDS011;32840;52.516;13.294;2023-07-02T06:19:14;6.75;;;2.70;;
47089;SDS011;32840;52.516;13.294;2023-07-02T06:21:59;8.25;;;3.35;;
47089;SDS011;32840;52.516;13.294;2023-07-02T06:24:44;4.72;;;2.50;;
47089;SDS011;32840;52.516;13.294;2023-07-02T06:27:29;6.63;;;2.75;;
47089;SDS011;32840;52.516;13.294;2023-07-02T06:30:14;5.68;;;3.00;;
47089;SDS011;32840;52.516;13.294;2023-07-02T06:32:59;4.78;;;2.63;;
47089;SDS011;32840;52.516;13.294;2023-07-02T06:35:48;7.55;;;2.38;;
47089;SDS011;32840;52.516;13.294;2023-07-02T06:38:36;7.10;;;2.78;;
47089;SDS011;32840;52.516;13.294;2023-07-02T06:41:21;4.50;;;2.55;;
47089;SDS011;32840;52.516;13.294;2023-07-02T06:44:06;4.90;;;2.70;;
47089;SDS011;32840;52.516;13.294;2023-07-02T06:46:51;4.72;;;2.60;;
47089;SDS011;32840;52.516;13.294;2023-07-02T06:49:36;4.50;;;2.63;;
47089;SDS011;32840;52.516;13.294;2023-07-02T06:52:21;4.88;;;2.38;;
47089;SDS011;32840;52.516;13.294;2023-07-02T06:55:07;5.13;;;2.60;;
47089;SDS011;32840;52.516;13.294;2023-07-02T06:57:52;9.10;;;2.80;;
47089;SDS011;32840;52.516;13.294;2023-07-02T07:00:37;4.60;;;2.80;;
47089;SDS011;32840;52.516;13.294;2023-07-02T07:03:22;6.47;;;2.70;;
47089;SDS011;32840;52.516;13.294;2023-07-02T07:06:11;6.93;;;2.75;;
47089;SDS011;32840;52.516;13.294;2023-07-02T07:08:57;7.47;;;2.92;;
47089;SDS011;32840;52.516;13.294;2023-07-02T07:11:42;9.38;;;2.90;;
47089;SDS011;32840;52.516;13.294;2023-07-02T07:14:28;7.13;;;2.50;;
47089;SDS011;32840;52.516;13.294;2023-07-02T07:17:13;5.97;;;2.63;;
47089;SDS011;32840;52.516;13.294;2023-07-02T07:19:58;6.55;;;2.75;;
47089;SDS011;32840;52.516;13.294;2023-07-02T07:22:43;8.93;;;3.20;;
47089;SDS011;32840;52.516;13.294;2023-07-02T07:25:28;8.20;;;3.00;;
47089;SDS011;32840;52.516;13.294;2023-07-02T07:28:13;5.25;;;2.70;;
47089;SDS011;32840;52.516;13.294;2023-07-02T07:31:01;4.22;;;2.72;;
47089;SDS011;32840;52.516;13.294;2023-07-02T07:33:50;6.20;;;2.80;;
47089;SDS011;32840;52.516;13.294;2023-07-02T07:36:38;7.53;;;2.90;;
47089;SDS011;32840;52.516;13.294;2023-07-02T07:39:23;7.00;;;3.00;;
47089;SDS011;32840;52.516;13.294;2023-07-02T07:42:08;5.80;;;2.40;;
47089;SDS011;32840;52.516;13.294;2023-07-02T07:44:53;5.20;;;2.80;;
47089;SDS011;32840;52.516;13.294;2023-07-02T07:47:39;6.68;;;2.90;;
47089;SDS011;32840;52.516;13.294;2023-07-02T07:50:24;8.43;;;3.22;;
47089;SDS011;32840;52.516;13.294;2023-07-02T07:53:08;5.97;;;2.72;;
47089;SDS011;32840;52.516;13.294;2023-07-02T07:55:54;8.50;;;2.92;;
47089;SDS011;32840;52.516;13.294;2023-07-02T07:58:38;9.57;;;3.30;;
47089;SDS011;32840;52.516;13.294;2023-07-02T08:01:25;7.47;;;3.22;;
47089;SDS011;32840;52.516;13.294;2023-07-02T08:04:11;6.40;;;2.75;;
47089;SDS011;32840;52.516;13.294;2023-07-02T08:06:58;8.40;;;2.70;;
47089;SDS011;32840;52.516;13.294;2023-07-02T08:09:43;5.95;;;2.95;;
47089;SDS011;32840;52.516;13.294;2023-07-02T08:12:28;6.15;;;3.47;;
47089;SDS011;32840;52.516;13.294;2023-07-02T08:15:33;8.90;;;3.20;;
47089;SDS011;32840;52.516;13.294;2023-07-02T08:18:19;6.47;;;2.90;;
47089;SDS011;32840;52.516;13.294;2023-07-02T08:21:05;5.38;;;3.30;;
47089;SDS011;32840;52.516;13.294;2023-07-02T08:23:52;8.43;;;2.80;;
47089;SDS011;32840;52.516;13.294;2023-07-02T08:26:37;7.75;;;3.42;;
47089;SDS011;32840;52.516;13.294;2023-07-02T08:29:22;4.97;;;2.90;;
47089;SDS011;32840;52.516;13.294;2023-07-02T08:32:07;7.25;;;3.10;;
47089;SDS011;32840;52.516;13.294;2023-07-02T08:34:52;6.57;;;3.15;;
47089;SDS011;32840;52.516;13.294;2023-07-02T08:37:37;6.88;;;2.95;;
47089;SDS011;32840;52.516;13.294;2023-07-02T08:40:23;6.88;;;3.33;;
47089;SDS011;32840;52.516;13.294;2023-07-02T08:43:08;7.10;;;3.78;;
47089;SDS011;32840;52.516;13.294;2023-07-02T08:45:54;7.97;;;3.53;;
47089;SDS011;32840;52.516;13.294;2023-07-02T08:48:39;5.07;;;3.13;;
47089;SDS011;32840;52.516;13.294;2023-07-02T08:51:24;6.72;;;3.25;;
47089;SDS011;32840;52.516;13.294;2023-07-02T08:54:09;6.38;;;3.40;;
47089;SDS011;32840;52.516;13.294;2023-07-02T08:56:54;7.65;;;3.55;;
47089;SDS011;32840;52.516;13.294;2023-07-02T08:59:40;6.53;;;3.50;;
47089;SDS011;32840;52.516;13.294;2023-07-02T09:02:31;6.60;;;4.07;;
47089;SDS011;32840;52.516;13.294;2023-07-02T09:05:17;6.72;;;4.50;;
47089;SDS011;32840;52.516;13.294;2023-07-02T09:08:02;6.30;;;3.50;;
47089;SDS011;32840;52.516;13.294;2023-07-02T09:10:48;7.85;;;4.22;;
47089;SDS011;32840;52.516;13.294;2023-07-02T09:16:33;8.80;;;4.22;;
47089;SDS011;32840;52.516;13.294;2023-07-02T09:19:21;8.75;;;4.00;;
47089;SDS011;32840;52.516;13.294;2023-07-02T09:22:07;5.80;;;4.00;;
47089;SDS011;32840;52.516;13.294;2023-07-02T09:24:57;8.17;;;4.53;;
47089;SDS011;32840;52.516;13.294;2023-07-02T09:27:43;10.43;;;4.55;;
47089;SDS011;32840;52.516;13.294;2023-07-02T09:30:28;7.82;;;4.68;;
47089;SDS011;32840;52.516;13.294;2023-07-02T09:33:12;9.43;;;4.53;;
47089;SDS011;32840;52.516;13.294;2023-07-02T09:36:00;8.20;;;4.05;;
47089;SDS011;32840;52.516;13.294;2023-07-02T09:38:45;10.57;;;4.82;;
47089;SDS011;32840;52.516;13.294;2023-07-02T09:41:31;9.20;;;4.70;;
47089;SDS011;32840;52.516;13.294;2023-07-02T09:44:16;8.77;;;5.40;;
47089;SDS011;32840;52.516;13.294;2023-07-02T09:47:06;10.30;;;4.75;;
47089;SDS011;32840;52.516;13.294;2023-07-02T09:49:53;9.27;;;5.20;;
47089;SDS011;32840;52.516;13.294;2023-07-02T09:52:49;9.77;;;5.70;;
47089;SDS011;32840;52.516;13.294;2023-07-02T09:55:34;12.48;;;6.05;;
47089;SDS011;32840;52.516;13.294;2023-07-02T09:58:20;13.18;;;5.75;;
47089;SDS011;32840;52.516;13.294;2023-07-02T10:01:05;12.93;;;6.25;;
47089;SDS011;32840;52.516;13.294;2023-07-02T10:03:50;13.60;;;5.72;;
47089;SDS011;32840;52.516;13.294;2023-07-02T10:06:48;13.35;;;6.25;;
47089;SDS011;32840;52.516;13.294;2023-07-02T10:09:37;15.00;;;6.40;;
47089;SDS011;32840;52.516;13.294;2023-07-02T10:12:29;11.32;;;7.10;;
47089;SDS011;32840;52.516;13.294;2023-07-02T10:15:23;14.70;;;7.45;;
47089;SDS011;32840;52.516;13.294;2023-07-02T10:18:14;11.90;;;5.72;;
47089;SDS011;32840;52.516;13.294;2023-07-02T10:20:59;12.23;;;6.10;;
47089;SDS011;32840;52.516;13.294;2023-07-02T10:23:43;10.95;;;5.25;;
47089;SDS011;32840;52.516;13.294;2023-07-02T10:26:30;12.13;;;5.75;;
47089;SDS011;32840;52.516;13.294;2023-07-02T10:29:18;11.57;;;6.25;;
47089;SDS011;32840;52.516;13.294;2023-07-02T10:32:03;12.93;;;5.75;;
47089;SDS011;32840;52.516;13.294;2023-07-02T10:34:49;10.38;;;5.97;;
47089;SDS011;32840;52.516;13.294;2023-07-02T10:37:36;9.88;;;6.30;;
47089;SDS011;32840;52.516;13.294;2023-07-02T10:40:23;14.50;;;6.38;;
47089;SDS011;32840;52.516;13.294;2023-07-02T10:43:08;13.68;;;5.60;;
47089;SDS011;32840;52.516;13.294;2023-07-02T10:45:53;15.77;;;6.22;;
47089;SDS011;32840;52.516;13.294;2023-07-02T10:48:40;11.90;;;6.18;;
47089;SDS011;32840;52.516;13.294;2023-07-02T10:51:35;17.35;;;6.65;;
47089;SDS011;32840;52.516;13.294;2023-07-02T10:54:20;12.25;;;7.07;;
47089;SDS011;32840;52.516;13.294;2023-07-02T10:57:05;14.23;;;6.07;;
47089;SDS011;32840;52.516;13.294;2023-07-02T10:59:50;13.50;;;6.88;;
47089;SDS011;32840;52.516;13.294;2023-07-02T11:02:35;12.18;;;6.88;;
47089;SDS011;32840;52.516;13.294;2023-07-02T11:05:22;14.50;;;6.32;;
47089;SDS011;32840;52.516;13.294;2023-07-02T11:08:08;12.13;;;6.32;;
47089;SDS011;32840;52.516;13.294;2023-07-02T11:11:06;14.82;;;6.63;;
47089;SDS011;32840;52.516;13.294;2023-07-02T11:13:52;18.17;;;6.55;;
47089;SDS011;32840;52.516;13.294;2023-07-02T11:16:37;17.90;;;7.30;;
47089;SDS011;32840;52.516;13.294;2023-07-02T11:19:23;23.08;;;6.32;;
47089;SDS011;32840;52.516;13.294;2023-07-02T11:22:08;21.05;;;8.63;;
47089;SDS011;32840;52.516;13.294;2023-07-02T11:24:53;12.43;;;6.45;;
47089;SDS011;32840;52.516;13.294;2023-07-02T11:27:38;11.30;;;6.68;;
47089;SDS011;32840;52.516;13.294;2023-07-02T11:30:24;15.30;;;7.32;;
47089;SDS011;32840;52.516;13.294;2023-07-02T11:33:09;9.90;;;6.82;;
47089;SDS011;32840;52.516;13.294;2023-07-02T11:35:55;11.90;;;7.30;;
47089;SDS011;32840;52.516;13.294;2023-07-02T11:38:41;9.88;;;6.05;;
47089;SDS011;32840;52.516;13.294;2023-07-02T11:41:35;11.73;;;6.28;;
47089;SDS011;32840;52.516;13.294;2023-07-02T11:44:21;18.40;;;7.07;;
47089;SDS011;32840;52.516;13.294;2023-07-02T11:47:06;11.32;;;6.30;;
47089;SDS011;32840;52.516;13.294;2023-07-02T11:49:51;31.00;;;11.80;;
47089;SDS011;32840;52.516;13.294;2023-07-02T11:52:39;12.77;;;6.32;;
47089;SDS011;32840;52.516;13.294;2023-07-02T11:55:24;15.10;;;6.72;;
47089;SDS011;32840;52.516;13.294;2023-07-02T11:58:10;11.73;;;6.32;;
47089;SDS011;32840;52.516;13.294;2023-07-02T12:00:55;10.52;;;5.88;;
47089;SDS011;32840;52.516;13.294;2023-07-02T12:03:40;11.50;;;6.45;;
47089;SDS011;32840;52.516;13.294;2023-07-02T12:06:27;11.98;;;6.78;;
47089;SDS011;32840;52.516;13.294;2023-07-02T12:09:13;12.63;;;6.72;;
47089;SDS011;32840;52.516;13.294;2023-07-02T12:11:58;16.75;;;9.60;;
47089;SDS011;32840;52.516;13.294;2023-07-02T12:14:43;15.00;;;7.40;;
47089;SDS011;32840;52.516;13.294;2023-07-02T12:17:28;13.52;;;6.57;;
47089;SDS011;32840;52.516;13.294;2023-07-02T12:20:13;13.13;;;7.40;;
47089;SDS011;32840;52.516;13.294;2023-07-02T12:22:57;17.70;;;6.30;;
47089;SDS011;32840;52.516;13.294;2023-07-02T12:25:42;11.85;;;6.63;;
47089;SDS011;32840;52.516;13.294;2023-07-02T12:28:27;16.92;;;6.63;;
47089;SDS011;32840;52.516;13.294;2023-07-02T12:31:13;16.38;;;7.28;;
47089;SDS011;32840;52.516;13.294;2023-07-02T12:33:58;14.15;;;7.15;;
47089;SDS011;32840;52.516;13.294;2023-07-02T12:36:43;14.18;;;7.30;;
47089;SDS011;32840;52.516;13.294;2023-07-02T12:39:29;15.60;;;7.28;;
47089;SDS011;32840;52.516;13.294;2023-07-02T12:42:15;15.95;;;6.75;;
47089;SDS011;32840;52.516;13.294;2023-07-02T12:45:00;13.43;;;6.78;;
47089;SDS011;32840;52.516;13.294;2023-07-02T12:47:45;13.73;;;6.43;;
47089;SDS011;32840;52.516;13.294;2023-07-02T12:50:30;18.00;;;7.90;;
47089;SDS011;32840;52.516;13.294;2023-07-02T12:53:15;11.88;;;6.32;;
47089;SDS011;32840;52.516;13.294;2023-07-02T12:55:59;14.95;;;7.25;;
47089;SDS011;32840;52.516;13.294;2023-07-02T12:58:44;24.92;;;7.50;;
47089;SDS011;32840;52.516;13.294;2023-07-02T13:01:29;12.35;;;6.93;;
47089;SDS011;32840;52.516;13.294;2023-07-02T13:04:14;17.33;;;7.57;;
47089;SDS011;32840;52.516;13.294;2023-07-02T13:06:59;13.10;;;6.18;;
47089;SDS011;32840;52.516;13.294;2023-07-02T13:09:44;15.40;;;7.03;;
47089;SDS011;32840;52.516;13.294;2023-07-02T13:12:28;11.40;;;7.30;;
47089;SDS011;32840;52.516;13.294;2023-07-02T13:15:13;14.05;;;6.93;;
47089;SDS011;32840;52.516;13.294;2023-07-02T13:17:59;13.35;;;7.00;;
47089;SDS011;32840;52.516;13.294;2023-07-02T13:20:44;21.33;;;13.15;;
47089;SDS011;32840;52.516;13.294;2023-07-02T13:23:29;13.88;;;6.13;;
47089;SDS011;32840;52.516;13.294;2023-07-02T13:26:14;13.95;;;6.72;;
47089;SDS011;32840;52.516;13.294;2023-07-02T13:28:59;12.77;;;6.65;;
47089;SDS011;32840;52.516;13.294;2023-07-02T13:31:44;12.40;;;6.80;;
47089;SDS011;32840;52.516;13.294;2023-07-02T13:34:29;14.82;;;7.07;;
47089;SDS011;32840;52.516;13.294;2023-07-02T13:37:13;13.38;;;6.43;;
47089;SDS011;32840;52.516;13.294;2023-07-02T13:40:02;15.50;;;6.97;;
47089;SDS011;32840;52.516;13.294;2023-07-02T13:42:49;13.52;;;7.20;;
47089;SDS011;32840;52.516;13.294;2023-07-02T13:45:34;14.40;;;6.88;;
47089;SDS011;32840;52.516;13.294;2023-07-02T13:48:18;19.98;;;7.28;;
47089;SDS011;32840;52.516;13.294;2023-07-02T13:51:03;15.02;;;6.55;;
47089;SDS011;32840;52.516;13.294;2023-07-02T13:53:48;13.52;;;7.13;;
47089;SDS011;32840;52.516;13.294;2023-07-02T13:56:33;13.32;;;6.55;;
47089;SDS011;32840;52.516;13.294;2023-07-02T13:59:19;14.95;;;7.25;;
47089;SDS011;32840;52.516;13.294;2023-07-02T14:02:05;12.95;;;6.95;;
47089;SDS011;32840;52.516;13.294;2023-07-02T14:04:50;13.70;;;7.13;;
47089;SDS011;32840;52.516;13.294;2023-07-02T14:07:35;10.73;;;6.43;;
47089;SDS011;32840;52.516;13.294;2023-07-02T14:10:24;17.63;;;6.72;;
47089;SDS011;32840;52.516;13.294;2023-07-02T14:13:10;19.80;;;6.72;;
47089;SDS011;32840;52.516;13.294;2023-07-02T14:15:58;14.15;;;6.57;;
47089;SDS011;32840;52.516;13.294;2023-07-02T14:18:43;16.58;;;8.10;;
47089;SDS011;32840;52.516;13.294;2023-07-02T14:21:28;17.38;;;8.50;;
47089;SDS011;32840;52.516;13.294;2023-07-02T14:24:13;13.48;;;7.10;;
47089;SDS011;32840;52.516;13.294;2023-07-02T14:27:01;15.23;;;7.53;;
47089;SDS011;32840;52.516;13.294;2023-07-02T14:30:05;16.23;;;7.18;;
47089;SDS011;32840;52.516;13.294;2023-07-02T14:32:54;14.73;;;6.55;;
47089;SDS011;32840;52.516;13.294;2023-07-02T14:35:39;14.68;;;6.70;;
47089;SDS011;32840;52.516;13.294;2023-07-02T14:38:28;14.30;;;6.45;;
47089;SDS011;32840;52.516;13.294;2023-07-02T14:41:13;11.75;;;6.07;;
47089;SDS011;32840;52.516;13.294;2023-07-02T14:43:58;19.42;;;7.00;;
47089;SDS011;32840;52.516;13.294;2023-07-02T14:46:43;13.57;;;7.00;;
47089;SDS011;32840;52.516;13.294;2023-07-02T14:49:30;14.95;;;6.75;;
47089;SDS011;32840;52.516;13.294;2023-07-02T14:52:15;16.45;;;7.30;;
47089;SDS011;32840;52.516;13.294;2023-07-02T14:55:05;18.47;;;6.80;;
47089;SDS011;32840;52.516;13.294;2023-07-02T14:57:50;9.30;;;6.25;;
47089;SDS011;32840;52.516;13.294;2023-07-02T15:00:43;13.73;;;6.85;;
47089;SDS011;32840;52.516;13.294;2023-07-02T15:03:29;12.63;;;6.40;;
47089;SDS011;32840;52.516;13.294;2023-07-02T15:06:15;12.75;;;7.15;;
47089;SDS011;32840;52.516;13.294;2023-07-02T15:09:12;15.45;;;6.72;;
47089;SDS011;32840;52.516;13.294;2023-07-02T15:11:57;16.05;;;8.32;;
47089;SDS011;32840;52.516;13.294;2023-07-02T15:14:42;13.40;;;7.65;;
47089;SDS011;32840;52.516;13.294;2023-07-02T15:17:35;16.90;;;6.65;;
47089;SDS011;32840;52.516;13.294;2023-07-02T15:20:24;12.05;;;5.60;;
47089;SDS011;32840;52.516;13.294;2023-07-02T15:23:09;15.52;;;6.35;;
47089;SDS011;32840;52.516;13.294;2023-07-02T15:25:58;12.18;;;6.65;;
47089;SDS011;32840;52.516;13.294;2023-07-02T15:28:50;17.85;;;5.97;;
47089;SDS011;32840;52.516;13.294;2023-07-02T15:31:35;13.68;;;6.35;;
47089;SDS011;32840;52.516;13.294;2023-07-02T15:34:24;14.32;;;6.53;;
47089;SDS011;32840;52.516;13.294;2023-07-02T15:37:11;16.08;;;7.30;;
47089;SDS011;32840;52.516;13.294;2023-07-02T15:39:56;11.82;;;7.25;;
47089;SDS011;32840;52.516;13.294;2023-07-02T15:42:41;16.98;;;6.97;;
47089;SDS011;32840;52.516;13.294;2023-07-02T15:45:27;13.68;;;6.10;;
47089;SDS011;32840;52.516;13.294;2023-07-02T15:48:13;17.73;;;9.50;;
47089;SDS011;32840;52.516;13.294;2023-07-02T15:51:01;17.65;;;6.32;;
47089;SDS011;32840;52.516;13.294;2023-07-02T15:53:50;12.20;;;5.38;;
47089;SDS011;32840;52.516;13.294;2023-07-02T15:56:35;11.35;;;5.97;;
47089;SDS011;32840;52.516;13.294;2023-07-02T15:59:24;13.70;;;6.18;;
47089;SDS011;32840;52.516;13.294;2023-07-02T16:02:15;14.10;;;6.40;;
47089;SDS011;32840;52.516;13.294;2023-07-02T16:05:17;16.80;;;6.15;;
47089;SDS011;32840;52.516;13.294;2023-07-02T16:08:02;12.43;;;6.15;;
47089;SDS011;32840;52.516;13.294;2023-07-02T16:10:47;13.82;;;6.65;;
47089;SDS011;32840;52.516;13.294;2023-07-02T16:13:32;11.85;;;6.00;;
47089;SDS011;32840;52.516;13.294;2023-07-02T16:16:21;12.95;;;5.93;;
47089;SDS011;32840;52.516;13.294;2023-07-02T16:19:06;18.52;;;6.60;;
47089;SDS011;32840;52.516;13.294;2023-07-02T16:21:53;15.27;;;6.50;;
47089;SDS011;32840;52.516;13.294;2023-07-02T16:24:41;17.20;;;6.38;;